Time;durP1;ratioP1;P1;durP2;ratioP2;P2;SDS_P1;SDS_P2;PMS_P1;PMS_P2;Temp;Humidity;BMP_temperature;BMP_pressure;BME280_temperature;BME280_humidity;BME280_pressure;Samples;Min_cycle;Max_cycle;Signal;HPM_P1;HPM_P2
2022/03/09 00:00:24;;;;;;;24.27;11.70;;;;;;;-4.08;78.75;93007.88;4964746;28;20042;-90
2022/03/09 00:06:42;;;;;;;;;;;;;;;;;;;;;
2022/03/09 00:09:30;;;;;;;23.83;11.68;;;;;;;-4.21;78.93;92982.97;4980890;28;20130;-88
2022/03/09 00:12:26;;;;;;;22.92;13.15;;;;;;;-4.27;78.78;92976.06;4977367;28;20049;-89
2022/03/09 00:15:24;;;;;;;25.17;12.10;;;;;;;-3.97;79.39;93022.72;4976363;28;20167;-88
2022/03/09 00:18:26;;;;;;;21.83;11.93;;;;;;;-4.18;78.80;92988.53;4997093;28;20050;-89
2022/03/09 00:21:28;;;;;;;;;;;;;;;;;;;;;
2022/03/09 00:27:04;;;;;;;21.00;11.60;;;;;;;-4.06;78.84;93011.06;4995591;28;20123;-89
2022/03/09 00:32:43;;;;;;;;;;;;;;;;;;;;;
2022/03/09 00:35:28;;;;;;;22.92;11.95;;;;;;;-4.11;79.08;93014.16;5016476;28;20041;-89
2022/03/09 00:38:02;;;;;;;22.15;12.43;;;;;;;-4.25;78.74;92985.13;4968420;28;20104;-89
2022/03/09 00:40:54;;;;;;;;;;;;;;;;;;;;;
2022/03/09 00:43:48;;;;;;;21.88;12.02;;;;;;;-3.78;79.29;93054.59;4984731;28;20129;-89
2022/03/09 00:46:50;;;;;;;21.58;11.63;;;;;;;-4.26;79.54;92990.41;4983730;28;20076;-91
2022/03/09 00:49:54;;;;;;;24.95;12.75;;;;;;;-4.26;78.53;92996.31;5011577;28;20038;-89
2022/03/09 00:52:47;;;;;;;23.83;12.68;;;;;;;-4.13;79.13;93028.91;5000289;28;20042;-88
2022/03/09 00:55:31;;;;;;;23.00;11.63;;;;;;;-4.08;78.68;93028.34;4998805;28;20125;-89
2022/03/09 00:58:14;;;;;;;;;;;;;;;;;;;;;
2022/03/09 01:01:39;;;;;;;20.45;11.43;;;;;;;-4.06;79.26;93045.09;5016253;28;20074;-89
2022/03/09 01:04:35;;;;;;;24.27;13.15;;;;;;;-4.28;79.49;93013.63;5016641;28;20483;-88
2022/03/09 01:07:30;;;;;;;27.02;12.50;;;;;;;-4.38;79.43;92997.78;5002801;28;20048;-88
2022/03/09 01:10:15;;;;;;;25.08;12.65;;;;;;;-4.42;78.90;92994.81;4968749;28;20183;-89
2022/03/09 01:16:25;;;;;;;22.92;11.00;;;;;;;-4.07;79.13;93043.50;5000182;28;20050;-89
2022/03/09 01:19:18;;;;;;;21.63;11.25;;;;;;;-4.07;79.32;93046.06;4960330;28;20487;-89
2022/03/09 01:22:03;;;;;;;22.65;11.25;;;;;;;-4.12;79.16;93033.06;4987338;28;20471;-90
2022/03/09 01:24:50;;;;;;;26.77;12.93;;;;;;;-4.16;78.88;93028.47;4997448;28;20052;-89
2022/03/09 01:28:06;;;;;;;;;;;;;;;;;;;;;
2022/03/09 01:31:00;;;;;;;26.08;12.27;;;;;;;-4.51;78.42;92962.69;4998147;28;20510;-90
2022/03/09 01:33:53;;;;;;;24.20;11.82;;;;;;;-4.34;78.49;92993.91;4988385;28;20044;-89
2022/03/09 01:36:41;;;;;;;22.40;11.65;;;;;;;-4.58;78.55;92972.06;4984883;28;20480;-90
2022/03/09 01:39:22;;;;;;;23.48;11.38;;;;;;;-4.26;78.84;93021.09;4998532;28;20569;-89
2022/03/09 01:42:16;;;;;;;24.50;11.90;;;;;;;-4.55;79.24;92974.22;4966656;28;20048;-89
2022/03/09 01:45:28;;;;;;;;;;;;;;;;;;;;;
2022/03/09 01:48:12;;;;;;;24.08;12.07;;;;;;;-4.47;79.48;92986.91;4995192;28;20563;-89
2022/03/09 01:50:54;;;;;;;22.48;11.60;;;;;;;-4.53;79.38;92981.72;4982968;28;20030;-86
2022/03/09 01:53:58;;;;;;;26.90;13.07;;;;;;;-4.54;79.47;92983.50;4996052;28;20073;-89
2022/03/09 01:57:06;;;;;;;24.88;12.73;;;;;;;-4.11;79.47;93039.72;4982596;28;20038;-90
2022/03/09 01:59:38;;;;;;;;;;;;;;;;;;;;;
2022/03/09 02:02:43;;;;;;;22.35;12.23;;;;;;;-4.50;79.60;92978.78;5003724;28;20060;-89
2022/03/09 02:05:51;;;;;;;20.75;11.40;;;;;;;-4.34;79.59;93003.34;5004148;28;20042;-89
2022/03/09 02:11:43;;;;;;;25.52;12.85;;;;;;;-4.34;79.65;92993.91;4983426;28;20052;-89
2022/03/09 02:14:42;;;;;;;22.00;11.00;;;;;;;-4.06;79.74;93036.63;4998483;28;20052;-89
2022/03/09 02:17:31;;;;;;;25.48;12.07;;;;;;;-4.41;79.73;92988.72;4982641;28;20057;-88
2022/03/09 02:20:18;;;;;;;23.10;11.90;;;;;;;-4.12;79.20;93033.06;4998479;28;20117;-89
2022/03/09 02:23:44;;;;;;;24.50;12.55;;;;;;;-4.12;79.42;93027.94;4971026;28;20046;-89
2022/03/09 02:27:01;;;;;;;19.25;10.38;;;;;;;-4.45;80.28;92979.84;4979302;28;20137;-89
2022/03/09 02:30:03;;;;;;;22.05;10.93;;;;;;;-4.33;79.59;92995.47;4980041;28;20484;-88
2022/03/09 02:33:17;;;;;;;;;;;;;;;;;;;;;
2022/03/09 02:35:47;;;;;;;19.80;10.00;;;;;;;-4.65;78.55;92948.19;4977513;28;20528;-89
2022/03/09 02:38:48;;;;;;;18.70;10.85;;;;;;;-4.16;78.29;93016.50;4979781;28;20531;-89
2022/03/09 02:41:34;;;;;;;;;;;;;;;;;;;;;
2022/03/09 02:44:14;;;;;;;22.10;12.27;;;;;;;-4.38;78.79;92992.69;5014423;28;20036;-89
2022/03/09 02:47:07;;;;;;;25.75;12.60;;;;;;;-4.26;78.63;93010.88;4998046;28;20036;-89
2022/03/09 02:50:00;;;;;;;21.30;11.57;;;;;;;-4.37;78.73;93009.59;4981033;28;20042;-92
2022/03/09 02:52:49;;;;;;;;;;;;;;;;;;;;;
2022/03/09 02:55:57;;;;;;;25.00;11.88;;;;;;;-4.65;79.57;92945.66;4980222;28;20049;-89
2022/03/09 02:58:58;;;;;;;21.42;11.63;;;;;;;-4.49;79.76;92968.41;4968978;28;20050;-89
2022/03/09 03:01:42;;;;;;;;;;;;;;;;;;;;;
2022/03/09 03:04:50;;;;;;;25.05;11.68;;;;;;;-4.60;79.66;92945.88;5016497;28;20115;-89
2022/03/09 03:08:16;;;;;;;;;;;;;;;;;;;;;
2022/03/09 03:11:23;;;;;;;;;;;;;;;;;;;;;
2022/03/09 03:14:21;;;;;;;23.27;11.98;;;;;;;-4.28;79.41;92982.16;4982732;28;20039;-89
2022/03/09 03:20:25;;;;;;;20.00;10.25;;;;;;;-4.42;79.60;92964.13;4999505;28;20060;-89
2022/03/09 03:23:12;;;;;;;27.45;11.98;;;;;;;-4.65;79.10;92925.22;4987244;28;20073;-89
2022/03/09 03:26:29;;;;;;;22.73;12.27;;;;;;;-4.36;79.69;92974.63;5017408;28;20073;-89
2022/03/09 03:29:18;;;;;;;22.13;11.30;;;;;;;-4.63;79.34;92934.28;5005413;28;20386;-88
2022/03/09 03:32:10;;;;;;;23.17;11.70;;;;;;;-4.20;80.09;93008.38;5003466;28;20053;-89
2022/03/09 03:35:13;;;;;;;22.02;12.90;;;;;;;-4.27;80.06;92996.53;4992243;28;20139;-89
2022/03/09 03:38:05;;;;;;;;;;;;;;;;;;;;;
2022/03/09 03:41:09;;;;;;;22.70;11.63;;;;;;;-4.45;79.77;92979.84;5016102;28;20103;-89
2022/03/09 03:44:18;;;;;;;24.77;11.45;;;;;;;-4.69;79.89;92939.31;5005837;28;20056;-89
2022/03/09 03:47:16;;;;;;;21.63;11.57;;;;;;;-4.44;80.19;92972.97;4981455;28;20046;-89
2022/03/09 03:50:05;;;;;;;22.50;11.20;;;;;;;-4.69;79.92;92934.22;5014131;28;20042;-89
2022/03/09 03:52:50;;;;;;;;;;;;;;;;;;;;;
2022/03/09 03:55:33;;;;;;;21.73;11.15;;;;;;;-4.74;79.82;92921.19;5000173;28;20513;-89
2022/03/09 03:58:57;;;;;;;21.65;10.73;;;;;;;-4.24;80.29;92996.94;5001335;28;20072;-89
2022/03/09 04:01:30;;;;;;;22.67;11.00;;;;;;;-4.41;79.62;92962.38;5003623;28;20128;-88
2022/03/09 04:04:23;;;;;;;23.08;11.07;;;;;;;-4.22;79.62;92986.53;5004745;28;20061;-89
2022/03/09 04:06:57;;;;;;;23.67;11.02;;;;;;;-4.51;79.12;92946.56;5003216;28;20044;-89
2022/03/09 04:09:53;;;;;;;26.33;11.98;;;;;;;-4.69;78.76;92921.44;4992468;28;20566;-88
2022/03/09 04:13:00;;;;;;;20.08;9.88;;;;;;;-4.44;78.56;92963.53;5004098;28;20491;-90
2022/03/09 04:15:38;;;;;;;19.42;10.23;;;;;;;-4.74;76.81;92927.09;5001219;28;20052;-89
2022/03/09 04:21:58;;;;;;;24.52;10.45;;;;;;;-4.29;76.69;92990.81;5008022;28;20041;-88
2022/03/09 04:24:31;;;;;;;19.83;9.43;;;;;;;-4.69;76.80;92934.22;4988102;28;20046;-89
2022/03/09 04:27:06;;;;;;;20.60;10.30;;;;;;;-4.52;76.44;92957.78;5034460;28;20045;-88
2022/03/09 04:29:46;;;;;;;21.65;11.32;;;;;;;-4.53;76.74;92954.41;5020599;28;20076;-89
2022/03/09 04:32:39;;;;;;;22.30;11.43;;;;;;;-4.70;76.89;92940.31;5028149;28;20033;-89
2022/03/09 04:35:24;;;;;;;18.63;10.75;;;;;;;-4.58;77.68;92959.28;5002506;28;20477;-88
2022/03/09 04:38:21;;;;;;;23.15;11.80;;;;;;;-4.40;77.75;92995.41;4992104;28;20499;-88
2022/03/09 04:41:14;;;;;;;22.27;10.18;;;;;;;-4.85;77.85;92925.81;4968370;28;20137;-89
2022/03/09 04:44:34;;;;;;;25.80;11.90;;;;;;;-4.90;78.69;92930.66;5001978;28;20040;-87
2022/03/09 04:47:23;;;;;;;21.65;10.90;;;;;;;-4.61;79.68;92980.88;4988221;28;20073;-89
2022/03/09 04:50:02;;;;;;;22.67;11.75;;;;;;;-4.63;79.28;92975.16;4987955;28;20644;-87
2022/03/09 04:52:38;;;;;;;20.80;11.00;;;;;;;-4.90;79.40;92938.34;5019894;28;20060;-89
2022/03/09 04:55:16;;;;;;;20.55;11.05;;;;;;;-4.91;79.24;92939.31;4995811;28;20041;-89
2022/03/09 04:57:57;;;;;;;25.80;12.18;;;;;;;-5.00;79.38;92917.41;5002521;28;20617;-87
2022/03/09 05:00:55;;;;;;;27.15;12.30;;;;;;;-4.97;79.88;92919.59;4986031;28;20034;-87
2022/03/09 05:04:00;;;;;;;24.90;11.88;;;;;;;-5.00;79.71;92924.28;4994761;28;20549;-88
2022/03/09 05:07:02;;;;;;;27.27;11.70;;;;;;;-4.52;79.92;93001.22;4971180;28;20035;-89
2022/03/09 05:10:02;;;;;;;21.80;12.05;;;;;;;-4.84;80.18;92952.94;4978546;28;20053;-87
2022/03/09 05:12:45;;;;;;;19.83;10.73;;;;;;;-5.02;80.16;92929.56;4995939;28;20518;-89
2022/03/09 05:15:55;;;;;;;25.65;12.23;;;;;;;-5.02;80.19;92929.56;4999185;28;20560;-89
2022/03/09 05:18:40;;;;;;;23.73;11.75;;;;;;;-4.93;80.71;92938.72;4988392;28;20046;-89
2022/03/09 05:21:56;;;;;;;23.45;11.50;;;;;;;-4.97;81.12;92931.59;5009024;28;20038;-89
2022/03/09 05:24:37;;;;;;;26.55;11.98;;;;;;;-4.66;80.69;92979.81;4998022;28;20042;-89
2022/03/09 05:27:18;;;;;;;23.27;11.35;;;;;;;-4.67;80.76;92979.03;4970317;28;20066;-89
2022/03/09 05:30:22;;;;;;;24.63;12.02;;;;;;;-4.98;79.96;92930.78;4994831;28;20038;-88
2022/03/09 05:33:29;;;;;;;24.20;11.57;;;;;;;-4.77;80.05;92962.41;4980714;28;20038;-89
2022/03/09 05:36:10;;;;;;;21.98;11.93;;;;;;;-4.93;79.33;92925.94;4994733;28;20034;-89
2022/03/09 05:39:11;;;;;;;19.52;10.23;;;;;;;-4.70;79.79;92950.53;4995071;28;20061;-89
2022/03/09 05:42:01;;;;;;;;;;;;;;;;;;;;;
2022/03/09 05:44:40;;;;;;;20.80;11.38;;;;;;;-4.71;78.31;92938.72;4989260;28;20038;-86
2022/03/09 05:47:09;;;;;;;20.98;10.18;;;;;;;-4.49;77.98;92970.94;4977561;28;20042;-86
2022/03/09 05:49:37;;;;;;;19.15;9.70;;;;;;;-4.62;77.56;92945.28;4961967;28;20037;-87
2022/03/09 05:52:08;;;;;;;17.25;9.23;;;;;;;-4.36;76.68;92977.16;4995177;28;20657;-86
2022/03/09 05:54:34;;;;;;;19.58;9.93;;;;;;;-4.72;76.45;92919.25;4984814;28;20037;-86
2022/03/09 05:56:59;;;;;;;21.55;11.15;;;;;;;-4.32;76.79;92983.47;4986875;28;20042;-87
2022/03/09 05:59:25;;;;;;;20.27;10.90;;;;;;;-4.47;76.69;92956.22;4991835;28;20113;-86
2022/03/09 06:01:50;;;;;;;23.35;11.43;;;;;;;-3.92;76.34;92987.16;4989944;28;20105;-85
2022/03/09 06:04:16;;;;;;;23.15;11.95;;;;;;;-2.39;72.06;92966.56;5002334;28;20053;-85
2022/03/09 06:06:42;;;;;;;24.90;12.70;;;;;;;-0.63;66.86;92987.22;4991118;28;20487;-87
2022/03/09 06:09:07;;;;;;;27.17;12.00;;;;;;;0.90;61.70;92990.47;4989863;28;20088;-87
2022/03/09 06:11:33;;;;;;;23.20;11.90;;;;;;;2.12;57.64;92981.78;4999566;28;20034;-86
2022/03/09 06:14:00;;;;;;;23.17;11.82;;;;;;;3.15;53.32;92978.84;4999847;28;20041;-86
2022/03/09 06:16:26;;;;;;;21.20;11.70;;;;;;;4.10;50.09;92978.28;4983598;28;20131;-87
2022/03/09 06:18:51;;;;;;;21.48;11.25;;;;;;;4.80;48.36;92982.22;5028712;28;20495;-86
2022/03/09 06:21:18;;;;;;;21.90;11.35;;;;;;;5.71;45.79;92990.59;5003346;28;20512;-87
2022/03/09 06:23:43;;;;;;;22.33;12.75;;;;;;;6.34;44.21;92989.16;5013416;28;20030;-86
2022/03/09 06:26:09;;;;;;;23.05;12.25;;;;;;;5.90;43.87;92996.25;4979905;28;20176;-86
2022/03/09 06:28:35;;;;;;;21.58;11.93;;;;;;;6.20;44.28;92982.81;4970794;28;20045;-86
2022/03/09 06:31:00;;;;;;;23.52;12.38;;;;;;;6.64;42.94;92985.22;4995696;28;20052;-86
2022/03/09 06:33:26;;;;;;;19.77;11.15;;;;;;;7.89;40.36;92979.34;4995345;28;20110;-85
2022/03/09 06:35:52;;;;;;;23.15;11.60;;;;;;;9.14;38.84;93002.63;4999136;28;20478;-82
2022/03/09 06:38:18;;;;;;;23.05;12.55;;;;;;;10.04;37.02;92980.88;4998150;28;20425;-84
2022/03/09 06:40:44;;;;;;;22.23;12.10;;;;;;;9.85;36.30;92999.03;5032791;28;20042;-84
2022/03/09 06:43:10;;;;;;;20.30;11.85;;;;;;;8.24;38.59;92995.31;5012287;28;20458;-85
2022/03/09 06:45:36;;;;;;;21.13;11.68;;;;;;;7.58;40.12;93004.50;4995326;28;20180;-85
2022/03/09 06:48:04;;;;;;;23.33;12.07;;;;;;;6.95;41.53;92999.22;4963056;28;20054;-86
2022/03/09 06:50:31;;;;;;;23.48;12.52;;;;;;;5.98;43.08;93020.00;4979532;28;20038;-84
2022/03/09 06:52:56;;;;;;;22.45;12.63;;;;;;;6.00;43.88;93020.56;4996061;28;20037;-84
2022/03/09 06:55:22;;;;;;;23.98;13.02;;;;;;;7.22;41.78;93022.56;5032092;28;20048;-85
2022/03/09 06:57:47;;;;;;;24.13;13.40;;;;;;;9.01;39.33;93019.66;5031954;28;20033;-85
2022/03/09 07:00:14;;;;;;;23.85;11.90;;;;;;;10.90;35.21;93004.94;5031943;28;20076;-84
2022/03/09 07:02:41;;;;;;;24.83;13.52;;;;;;;12.94;31.52;93003.53;5031999;28;20045;-86
2022/03/09 07:05:07;;;;;;;22.15;13.15;;;;;;;14.34;29.45;92996.22;5016946;28;20257;-85
2022/03/09 07:07:33;;;;;;;25.25;13.63;;;;;;;15.39;27.85;92994.34;4994925;28;20038;-85
2022/03/09 07:09:59;;;;;;;23.05;13.93;;;;;;;16.05;26.54;92983.09;4994479;28;20436;-85
2022/03/09 07:12:24;;;;;;;22.17;13.13;;;;;;;17.20;24.43;92973.81;4994766;28;20096;-85
2022/03/09 07:14:50;;;;;;;22.13;13.05;;;;;;;17.81;23.55;92996.63;5012512;28;20053;-85
2022/03/09 07:17:16;;;;;;;21.33;13.18;;;;;;;17.80;22.66;93006.47;4975907;28;20132;-85
2022/03/09 07:19:42;;;;;;;20.65;12.77;;;;;;;18.34;22.38;92992.66;5012569;28;20028;-86
2022/03/09 07:22:07;;;;;;;23.48;14.13;;;;;;;19.17;22.13;92996.41;5013330;28;20067;-86
2022/03/09 07:24:34;;;;;;;22.50;14.35;;;;;;;18.65;21.93;92986.22;4997629;28;20041;-85
2022/03/09 07:27:00;;;;;;;21.48;13.55;;;;;;;18.86;22.03;92997.59;4975091;28;20076;-85
2022/03/09 07:29:26;;;;;;;22.13;14.23;;;;;;;18.80;22.08;93001.56;4978626;28;20400;-86
2022/03/09 07:31:53;;;;;;;24.02;14.93;;;;;;;18.49;22.55;93004.59;4977768;28;20096;-84
2022/03/09 07:34:26;;;;;;;23.48;14.25;;;;;;;19.29;21.98;93012.34;4994681;28;20118;-86
2022/03/09 07:36:58;;;;;;;23.60;15.10;;;;;;;19.58;22.71;93023.19;4995702;28;20455;-85
2022/03/09 07:39:28;;;;;;;24.08;14.25;;;;;;;19.05;22.26;93020.22;5014270;28;20490;-85
2022/03/09 07:41:55;;;;;;;25.60;14.95;;;;;;;15.94;24.72;93030.94;4993000;28;20046;-89
2022/03/09 07:44:24;;;;;;;24.05;15.55;;;;;;;13.69;28.37;93034.13;5018304;28;20028;-85
2022/03/09 07:46:50;;;;;;;26.13;14.63;;;;;;;11.41;31.69;93051.63;5019720;28;20561;-85
2022/03/09 07:49:18;;;;;;;26.60;14.55;;;;;;;10.33;34.14;93050.88;4971544;28;20526;-85
2022/03/09 07:51:44;;;;;;;28.42;14.05;;;;;;;8.51;37.37;93044.69;4978704;28;20046;-84
2022/03/09 07:54:10;;;;;;;26.65;14.90;;;;;;;8.64;38.35;93069.50;4980384;28;20083;-84
2022/03/09 07:56:36;;;;;;;23.67;14.73;;;;;;;9.16;37.60;93063.22;5014142;28;20021;-85
2022/03/09 07:59:06;;;;;;;27.23;14.40;;;;;;;9.86;36.81;93067.78;4985462;28;20046;-84
2022/03/09 08:01:32;;;;;;;24.52;14.80;;;;;;;8.77;37.70;93078.66;5012937;28;20041;-85
2022/03/09 08:03:58;;;;;;;27.40;14.25;;;;;;;8.13;39.23;93086.56;4976373;28;20050;-85
2022/03/09 08:06:24;;;;;;;25.70;14.43;;;;;;;7.14;40.15;93087.34;4978644;28;20173;-85
2022/03/09 08:08:50;;;;;;;26.63;14.13;;;;;;;6.66;41.58;93056.81;5001898;28;20124;-84
2022/03/09 08:11:16;;;;;;;25.92;13.68;;;;;;;6.35;42.59;93104.34;5014389;28;20025;-85
2022/03/09 08:13:41;;;;;;;25.08;14.73;;;;;;;7.32;41.36;93092.19;4998483;28;20379;-85
2022/03/09 08:16:07;;;;;;;25.30;12.77;;;;;;;7.83;40.13;93097.66;5014622;28;20534;-85
2022/03/09 08:18:34;;;;;;;25.73;11.50;;;;;;;7.25;38.64;93095.00;5013031;28;20034;-85
2022/03/09 08:20:59;;;;;;;20.40;10.13;;;;;;;7.08;36.19;93087.31;5032163;28;20086;-87
2022/03/09 08:23:25;;;;;;;16.08;9.68;;;;;;;6.71;34.86;93089.91;5014663;28;20483;-86
2022/03/09 08:25:51;;;;;;;22.23;12.60;;;;;;;5.97;39.71;93099.00;4998137;28;20044;-87
2022/03/09 08:28:18;;;;;;;16.25;9.00;;;;;;;5.86;36.06;93097.28;5014806;28;20471;-85
2022/03/09 08:30:46;;;;;;;19.25;9.93;;;;;;;5.54;37.51;93084.94;4996644;28;20033;-85
2022/03/09 08:33:15;;;;;;;19.33;10.73;;;;;;;5.46;40.58;93107.94;4962816;28;20208;-85
2022/03/09 08:35:40;;;;;;;21.27;11.63;;;;;;;5.52;42.19;93102.59;4978816;28;20038;-85
2022/03/09 08:38:06;;;;;;;21.45;11.15;;;;;;;5.64;41.77;93092.84;4978651;28;20380;-85
2022/03/09 08:40:32;;;;;;;22.52;10.98;;;;;;;6.43;39.53;93109.91;4978918;28;20399;-85
2022/03/09 08:42:57;;;;;;;25.65;12.40;;;;;;;5.74;41.31;93112.19;4995370;28;20935;-85
2022/03/09 08:45:23;;;;;;;23.48;12.18;;;;;;;6.61;38.94;93110.59;4980614;28;20034;-85
2022/03/09 08:47:49;;;;;;;19.77;10.93;;;;;;;6.56;38.18;93111.34;4998223;28;20155;-85
2022/03/09 08:50:15;;;;;;;20.40;11.00;;;;;;;6.74;37.94;93078.19;5015856;28;20036;-85
2022/03/09 08:52:40;;;;;;;23.98;12.75;;;;;;;6.06;39.40;93094.19;4997909;28;20050;-85
2022/03/09 08:55:07;;;;;;;20.10;10.85;;;;;;;6.94;38.67;93091.38;4982072;28;20034;-85
2022/03/09 08:57:32;;;;;;;22.58;11.02;;;;;;;6.08;40.35;93106.91;4965912;28;20042;-85
2022/03/09 09:00:01;;;;;;;23.42;11.52;;;;;;;6.25;39.69;93084.25;4981825;28;20042;-86
2022/03/09 09:02:27;;;;;;;19.52;11.23;;;;;;;6.80;38.64;93104.03;5002494;28;20117;-87
2022/03/09 09:04:52;;;;;;;23.50;12.20;;;;;;;5.89;41.33;93103.81;4996614;28;20125;-86
2022/03/09 09:07:18;;;;;;;21.17;11.57;;;;;;;5.51;41.92;93102.81;5015871;28;20033;-87
2022/03/09 09:09:43;;;;;;;22.42;11.82;;;;;;;5.68;42.66;93120.97;4999998;28;20335;-86
2022/03/09 09:12:10;;;;;;;19.00;10.35;;;;;;;5.16;42.70;93107.28;5000975;28;20447;-86
2022/03/09 09:14:36;;;;;;;18.55;11.25;;;;;;;4.70;43.36;93088.38;5001671;28;20045;-85
2022/03/09 09:17:02;;;;;;;22.70;12.48;;;;;;;4.98;43.30;93130.88;5035311;28;20100;-87
2022/03/09 09:19:28;;;;;;;20.30;10.93;;;;;;;5.82;42.77;93132.56;5001060;28;20050;-85
2022/03/09 09:21:55;;;;;;;20.80;11.70;;;;;;;5.90;41.96;93111.38;5011019;28;20033;-85
2022/03/09 09:24:21;;;;;;;22.30;12.15;;;;;;;5.49;42.07;93116.03;4995838;28;20042;-85
2022/03/09 09:26:47;;;;;;;24.70;12.10;;;;;;;5.65;41.88;93127.41;5014026;28;20052;-85
2022/03/09 09:29:15;;;;;;;19.80;11.52;;;;;;;6.67;40.35;93120.03;5013868;28;20045;-86
2022/03/09 09:31:41;;;;;;;27.05;12.25;;;;;;;7.24;39.23;93103.06;5013762;28;20034;-85
2022/03/09 09:34:07;;;;;;;23.90;12.18;;;;;;;6.79;39.54;93123.25;5016636;28;20037;-86
2022/03/09 09:36:33;;;;;;;22.65;11.32;;;;;;;6.43;40.96;93109.91;4985050;28;20494;-85
2022/03/09 09:39:00;;;;;;;21.88;11.38;;;;;;;6.51;40.99;93126.91;5017651;28;20061;-86
2022/03/09 09:41:26;;;;;;;21.63;12.23;;;;;;;6.55;41.79;93124.56;5000555;28;20497;-86
2022/03/09 09:43:52;;;;;;;28.70;11.60;;;;;;;6.44;41.54;93121.13;5000815;28;20041;-86
2022/03/09 09:46:18;;;;;;;24.02;11.65;;;;;;;6.14;42.65;93118.94;5019173;28;20152;-87
2022/03/09 09:48:44;;;;;;;21.70;11.35;;;;;;;6.46;40.93;93114.63;4999494;28;20048;-86
2022/03/09 09:51:12;;;;;;;21.73;11.75;;;;;;;6.72;40.49;93111.50;4998928;28;20045;-86
2022/03/09 09:53:41;;;;;;;23.67;11.15;;;;;;;5.73;41.45;93101.03;4983831;28;20403;-86
2022/03/09 09:56:07;;;;;;;18.77;10.63;;;;;;;5.89;41.42;93119.41;5029145;28;20406;-86
2022/03/09 09:58:34;;;;;;;24.77;11.48;;;;;;;6.24;41.14;93090.47;5032533;28;20044;-85
2022/03/09 10:00:59;;;;;;;16.00;9.85;;;;;;;6.40;40.30;93104.41;4996645;28;20038;-85
2022/03/09 10:03:25;;;;;;;20.92;10.75;;;;;;;6.19;40.73;93093.00;5032018;28;20076;-85
2022/03/09 10:05:50;;;;;;;21.17;10.80;;;;;;;5.93;41.11;93095.28;4999607;28;20065;-85
2022/03/09 10:08:18;;;;;;;22.30;11.63;;;;;;;6.20;40.82;93110.19;5033165;28;20045;-85
2022/03/09 10:10:58;;;;;;;21.55;11.25;;;;;;;5.96;40.99;93094.84;4999739;28;20045;-85
2022/03/09 10:13:30;;;;;;;21.45;11.40;;;;;;;6.86;40.58;93108.22;5015200;28;20083;-85
2022/03/09 10:16:21;;;;;;;23.05;11.65;;;;;;;6.27;41.57;93110.78;4999075;28;20042;-85
2022/03/09 10:18:57;;;;;;;23.10;10.98;;;;;;;6.59;41.65;93116.03;4999140;28;20056;-87
2022/03/09 10:21:28;;;;;;;24.00;11.70;;;;;;;6.21;41.96;93080.53;4978869;28;20195;-86
2022/03/09 10:24:02;;;;;;;22.08;11.85;;;;;;;6.57;41.66;93115.50;5005519;28;20030;-85
2022/03/09 10:26:49;;;;;;;23.95;12.15;;;;;;;6.77;41.78;93119.31;5014093;28;20163;-86
2022/03/09 10:29:17;;;;;;;22.48;11.00;;;;;;;6.52;40.41;93096.47;4984937;28;20049;-84
2022/03/09 10:31:51;;;;;;;23.90;12.57;;;;;;;6.46;40.51;93099.03;4999074;28;20064;-85
2022/03/09 10:34:19;;;;;;;23.23;11.68;;;;;;;6.23;41.25;93107.09;5013631;28;20048;-87
2022/03/09 10:36:58;;;;;;;21.02;11.65;;;;;;;6.62;40.11;93091.34;4994774;28;20042;-85
2022/03/09 10:39:37;;;;;;;20.50;10.98;;;;;;;6.36;39.21;93108.53;5011185;28;20399;-85
2022/03/09 10:42:04;;;;;;;22.63;11.75;;;;;;;6.35;39.90;93092.16;5011613;28;20049;-85
2022/03/09 10:44:46;;;;;;;19.08;9.93;;;;;;;6.68;40.28;93077.34;5011531;28;20780;-85
2022/03/09 10:47:28;;;;;;;19.65;10.18;;;;;;;6.68;39.31;93100.78;4996615;28;20046;-86
2022/03/09 10:49:54;;;;;;;24.20;10.27;;;;;;;6.74;38.20;93078.97;4985178;28;20034;-85
2022/03/09 10:52:19;;;;;;;20.42;9.80;;;;;;;7.15;35.97;93071.47;5014976;28;20536;-86
2022/03/09 10:54:45;;;;;;;18.17;8.73;;;;;;;5.93;35.92;93079.72;5015148;28;20441;-86
2022/03/09 10:57:12;;;;;;;22.02;10.40;;;;;;;6.81;38.14;93083.97;5023772;28;20531;-88
2022/03/09 10:59:52;;;;;;;13.55;7.63;;;;;;;7.21;31.50;93026.22;4995023;28;20038;-87
2022/03/09 11:02:19;;;;;;;18.67;9.68;;;;;;;7.80;32.78;93053.09;4994787;28;20399;-85
2022/03/09 11:05:17;;;;;;;16.80;9.15;;;;;;;8.81;31.53;93074.50;5012629;28;20053;-87
2022/03/09 11:07:42;;;;;;;12.80;6.72;;;;;;;7.58;30.56;93061.06;4994773;28;20490;-87
2022/03/09 11:10:12;;;;;;;19.08;7.80;;;;;;;8.05;30.74;93058.38;5009844;28;20057;-86
2022/03/09 11:12:38;;;;;;;13.35;7.60;;;;;;;8.66;28.19;93070.03;4998320;28;20033;-86
2022/03/09 11:15:05;;;;;;;13.93;7.68;;;;;;;8.40;30.11;93071.75;5032805;28;20034;-87
2022/03/09 11:17:31;;;;;;;19.85;10.18;;;;;;;8.60;32.47;93073.66;5010016;28;20046;-87
2022/03/09 11:19:57;;;;;;;18.35;9.50;;;;;;;8.12;34.88;93056.31;4994838;28;20030;-89
2022/03/09 11:22:23;;;;;;;22.73;12.20;;;;;;;7.88;36.19;93070.81;5026119;28;20099;-86
2022/03/09 11:24:49;;;;;;;18.67;10.90;;;;;;;8.14;35.66;93064.66;4997919;28;20485;-85
2022/03/09 11:27:16;;;;;;;21.33;10.18;;;;;;;7.23;38.41;93057.22;5029753;28;20025;-88
2022/03/09 11:29:42;;;;;;;18.23;9.68;;;;;;;7.57;37.42;93062.88;5013997;28;20128;-87
2022/03/09 11:32:10;;;;;;;21.83;11.43;;;;;;;7.34;37.96;93047.63;4981198;28;20052;-88
2022/03/09 11:34:41;;;;;;;23.20;12.20;;;;;;;7.24;37.68;93072.56;5012981;28;20033;-86
2022/03/09 11:37:11;;;;;;;22.92;11.98;;;;;;;7.71;37.06;93071.03;5012967;28;20176;-86
2022/03/09 11:39:41;;;;;;;22.42;12.65;;;;;;;7.51;35.54;93063.88;5011125;28;20044;-88
2022/03/09 11:42:22;;;;;;;22.38;12.40;;;;;;;7.98;35.78;93063.06;5013283;28;20049;-87
2022/03/09 11:44:52;;;;;;;17.90;10.27;;;;;;;7.46;36.77;93050.84;5027843;28;20116;-87
2022/03/09 11:48:01;;;;;;;18.65;9.52;;;;;;;7.58;35.78;93056.63;5008030;28;20052;-85
2022/03/09 11:50:38;;;;;;;23.58;12.63;;;;;;;7.67;35.39;92992.56;4994870;28;20046;-86
2022/03/09 11:53:36;;;;;;;17.95;10.35;;;;;;;7.29;35.80;93030.16;4979660;28;20033;-86
2022/03/09 11:56:25;;;;;;;19.55;9.63;;;;;;;7.70;35.34;93048.59;4996831;28;20128;-86
2022/03/09 11:59:26;;;;;;;18.60;10.70;;;;;;;7.62;35.11;92991.78;4998140;28;20033;-86
2022/03/09 12:02:06;;;;;;;18.33;10.30;;;;;;;7.68;36.05;93041.03;4994163;28;20102;-85
2022/03/09 12:07:42;;;;;;;21.42;10.73;;;;;;;8.19;34.23;93030.00;4977466;28;20038;-86
2022/03/09 12:10:11;;;;;;;23.20;11.80;;;;;;;7.48;35.43;92968.78;4997695;28;20041;-87
2022/03/09 12:13:15;;;;;;;16.92;9.15;;;;;;;7.29;35.77;92981.47;4997510;28;20037;-85
2022/03/09 12:16:05;;;;;;;20.00;11.07;;;;;;;7.43;36.07;92981.00;4986307;28;20422;-85
2022/03/09 12:19:06;;;;;;;;;;;;;;;;;;;;;
2022/03/09 12:21:35;;;;;;;21.02;11.23;;;;;;;7.84;34.67;93013.22;5012566;28;20516;-85
2022/03/09 12:24:16;;;;;;;20.75;10.82;;;;;;;8.12;34.39;93019.03;5017712;28;20398;-86
2022/03/09 12:26:57;;;;;;;21.17;10.77;;;;;;;8.27;33.90;92992.19;5035724;28;20483;-86
2022/03/09 12:29:34;;;;;;;19.67;9.88;;;;;;;8.43;33.69;93009.47;5034186;28;20053;-86
2022/03/09 12:32:14;;;;;;;20.30;10.27;;;;;;;7.90;33.70;92991.34;4997591;28;20478;-85
2022/03/09 12:35:00;;;;;;;21.08;10.57;;;;;;;8.38;33.66;92957.25;5015827;28;20044;-91
2022/03/09 12:37:38;;;;;;;16.65;8.48;;;;;;;8.01;31.29;92937.38;5019594;28;20042;-87
2022/03/09 12:40:17;;;;;;;;;;;;;;;;;;;;;
2022/03/09 12:43:15;;;;;;;;;;;;;;;;;;;;;
2022/03/09 12:46:12;;;;;;;18.27;9.38;;;;;;;8.33;31.91;92993.75;4997811;28;20041;-89
2022/03/09 12:48:51;;;;;;;;;;;;;;;;;;;;;
2022/03/09 12:51:24;;;;;;;16.55;9.52;;;;;;;7.87;30.68;92929.28;5055189;28;20036;-89
2022/03/09 12:53:52;;;;;;;16.98;9.38;;;;;;;8.17;30.49;92929.59;5037591;28;20478;-85
2022/03/09 12:56:21;;;;;;;16.42;8.63;;;;;;;8.48;30.63;92939.00;5037517;28;20032;-86
2022/03/09 12:59:15;;;;;;;17.88;8.18;;;;;;;8.99;30.00;92937.41;5008885;28;20048;-89
2022/03/09 13:01:58;;;;;;;15.73;9.05;;;;;;;8.55;29.74;92920.47;5005254;28;20033;-87
2022/03/09 13:04:56;;;;;;;14.50;7.45;;;;;;;8.90;28.91;92951.00;5014616;28;20049;-86
2022/03/09 13:07:29;;;;;;;18.35;9.50;;;;;;;8.82;30.06;92933.22;4990388;28;20456;-86
2022/03/09 13:10:27;;;;;;;19.15;9.07;;;;;;;8.85;30.40;92943.16;5024538;28;20033;-87
2022/03/09 13:13:01;;;;;;;12.10;6.82;;;;;;;8.83;29.80;92934.03;5034420;28;20037;-86